Terminal Aerodrome Forecast
Issued by NWS

Home | Current Version | Previous Version | Text Only | Print | Product List | Glossary On
Versions: 1 2 3 4 5 6 7 8 9 10 11 12 13 14 15 16 17 18
000
FTUS43 KAPX 301738
TAFMBL
TAF
KMBL 301738Z 3018/0118 08008KT P6SM OVC200
     FM010300 08007KT P6SM VCSH OVC080
     FM010600 07006KT P6SM -SHRA OVC060
     FM011100 05009KT P6SM -SHRA OVC025
     FM011400 06010KT P6SM VCSH OVC015
      AMD LTD TO CLD VIS AND WIND=

USA.gov is the U.S. government's official web portal to all federal, state and local government web resources and services.